sensor_id;sensor_type;location;lat;lon;timestamp;pressure;altitude;pressure_sealevel;temperature;humidity
58534;BME280;44109;52.398;7.024;2023-02-07T00:01:27;103883.53;;;0.72;100.00
58534;BME280;44109;52.398;7.024;2023-02-07T00:03:57;103878.09;;;0.72;100.00
58534;BME280;44109;52.398;7.024;2023-02-07T00:06:27;103842.56;;;0.54;100.00
58534;BME280;44109;52.398;7.024;2023-02-07T00:08:58;103869.38;;;0.64;100.00
58534;BME280;44109;52.398;7.024;2023-02-07T00:11:26;103867.78;;;0.56;100.00
58534;BME280;44109;52.398;7.024;2023-02-07T00:13:55;103868.06;;;0.48;100.00
58534;BME280;44109;52.398;7.024;2023-02-07T00:16:24;103860.00;;;0.35;100.00
58534;BME280;44109;52.398;7.024;2023-02-07T00:18:53;103871.72;;;0.42;100.00
58534;BME280;44109;52.398;7.024;2023-02-07T00:21:24;103864.41;;;0.36;100.00
58534;BME280;44109;52.398;7.024;2023-02-07T00:23:52;103873.50;;;0.30;100.00
58534;BME280;44109;52.398;7.024;2023-02-07T00:26:22;103862.28;;;0.19;100.00
58534;BME280;44109;52.398;7.024;2023-02-07T00:28:52;103861.28;;;0.14;100.00
58534;BME280;44109;52.398;7.024;2023-02-07T00:31:22;103854.44;;;0.05;100.00
58534;BME280;44109;52.398;7.024;2023-02-07T00:33:53;103828.81;;;-0.19;100.00
58534;BME280;44109;52.398;7.024;2023-02-07T00:36:25;103841.19;;;-0.17;100.00
58534;BME280;44109;52.398;7.024;2023-02-07T00:38:55;103833.53;;;-0.33;100.00
58534;BME280;44109;52.398;7.024;2023-02-07T00:41:24;103839.63;;;-0.31;100.00
58534;BME280;44109;52.398;7.024;2023-02-07T00:43:52;103842.34;;;-0.31;100.00
58534;BME280;44109;52.398;7.024;2023-02-07T00:46:20;103842.38;;;-0.38;100.00
58534;BME280;44109;52.398;7.024;2023-02-07T00:48:48;103854.41;;;-0.45;100.00
58534;BME280;44109;52.398;7.024;2023-02-07T00:51:17;103828.16;;;-0.71;100.00
58534;BME280;44109;52.398;7.024;2023-02-07T00:53:47;103841.06;;;-0.60;100.00
58534;BME280;44109;52.398;7.024;2023-02-07T00:56:14;103806.38;;;-0.78;100.00
58534;BME280;44109;52.398;7.024;2023-02-07T00:58:42;103841.53;;;-0.63;100.00
58534;BME280;44109;52.398;7.024;2023-02-07T01:01:10;103842.72;;;-0.59;100.00
58534;BME280;44109;52.398;7.024;2023-02-07T01:06:07;103848.06;;;-0.71;100.00
58534;BME280;44109;52.398;7.024;2023-02-07T01:08:35;103857.66;;;-0.68;100.00
58534;BME280;44109;52.398;7.024;2023-02-07T01:11:06;103847.16;;;-0.58;100.00
58534;BME280;44109;52.398;7.024;2023-02-07T01:13:36;103832.03;;;-0.54;100.00
58534;BME280;44109;52.398;7.024;2023-02-07T01:16:04;103822.88;;;-0.66;100.00
58534;BME280;44109;52.398;7.024;2023-02-07T01:18:32;103848.19;;;-0.59;100.00
58534;BME280;44109;52.398;7.024;2023-02-07T01:21:00;103847.00;;;-0.70;100.00
58534;BME280;44109;52.398;7.024;2023-02-07T01:23:27;103844.03;;;-0.62;100.00
58534;BME280;44109;52.398;7.024;2023-02-07T01:25:55;103832.03;;;-0.54;100.00
58534;BME280;44109;52.398;7.024;2023-02-07T01:28:24;103840.88;;;-0.59;100.00
58534;BME280;44109;52.398;7.024;2023-02-07T01:30:52;103845.25;;;-0.58;100.00
58534;BME280;44109;52.398;7.024;2023-02-07T01:33:19;103850.72;;;-0.64;100.00
58534;BME280;44109;52.398;7.024;2023-02-07T01:35:47;103841.19;;;-0.80;100.00
58534;BME280;44109;52.398;7.024;2023-02-07T01:38:14;103839.56;;;-0.88;100.00
58534;BME280;44109;52.398;7.024;2023-02-07T01:40:42;103839.72;;;-0.83;100.00
58534;BME280;44109;52.398;7.024;2023-02-07T01:43:14;103835.34;;;-0.84;100.00
58534;BME280;44109;52.398;7.024;2023-02-07T01:45:52;103830.97;;;-0.91;100.00
58534;BME280;44109;52.398;7.024;2023-02-07T01:48:22;103842.91;;;-0.86;100.00
58534;BME280;44109;52.398;7.024;2023-02-07T01:50:57;103839.53;;;-0.81;100.00
58534;BME280;44109;52.398;7.024;2023-02-07T01:53:30;103828.66;;;-0.88;100.00
58534;BME280;44109;52.398;7.024;2023-02-07T01:56:05;103845.19;;;-0.83;100.00
58534;BME280;44109;52.398;7.024;2023-02-07T01:58:35;103843.94;;;-0.87;100.00
58534;BME280;44109;52.398;7.024;2023-02-07T02:01:09;103836.22;;;-0.90;100.00
58534;BME280;44109;52.398;7.024;2023-02-07T02:03:46;103832.44;;;-0.89;100.00
58534;BME280;44109;52.398;7.024;2023-02-07T02:06:16;103841.22;;;-0.87;100.00
58534;BME280;44109;52.398;7.024;2023-02-07T02:08:44;103842.72;;;-0.91;100.00
58534;BME280;44109;52.398;7.024;2023-02-07T02:11:24;103841.25;;;-0.93;100.00
58534;BME280;44109;52.398;7.024;2023-02-07T02:14:22;103823.28;;;-1.01;100.00
58534;BME280;44109;52.398;7.024;2023-02-07T02:17:08;103824.94;;;-1.00;100.00
58534;BME280;44109;52.398;7.024;2023-02-07T02:20:16;103848.00;;;-1.03;100.00
58534;BME280;44109;52.398;7.024;2023-02-07T02:23:20;103834.03;;;-1.13;100.00
58534;BME280;44109;52.398;7.024;2023-02-07T02:26:24;103838.84;;;-1.15;100.00
58534;BME280;44109;52.398;7.024;2023-02-07T02:29:31;103834.72;;;-1.31;100.00
58534;BME280;44109;52.398;7.024;2023-02-07T02:35:34;103834.78;;;-1.44;100.00
58534;BME280;44109;52.398;7.024;2023-02-07T02:38:14;103824.34;;;-1.54;100.00
58534;BME280;44109;52.398;7.024;2023-02-07T02:40:53;103823.09;;;-1.64;100.00
58534;BME280;44109;52.398;7.024;2023-02-07T02:43:27;103829.59;;;-1.65;100.00
58534;BME280;44109;52.398;7.024;2023-02-07T02:46:03;103827.72;;;-1.78;100.00
58534;BME280;44109;52.398;7.024;2023-02-07T02:48:36;103817.28;;;-1.88;100.00
58534;BME280;44109;52.398;7.024;2023-02-07T02:51:04;103811.41;;;-1.91;100.00
58534;BME280;44109;52.398;7.024;2023-02-07T02:53:32;103807.50;;;-2.09;100.00
58534;BME280;44109;52.398;7.024;2023-02-07T02:56:12;103811.03;;;-2.15;100.00
58534;BME280;44109;52.398;7.024;2023-02-07T02:59:06;103804.34;;;-2.25;100.00
58534;BME280;44109;52.398;7.024;2023-02-07T03:02:00;103819.84;;;-2.26;100.00
58534;BME280;44109;52.398;7.024;2023-02-07T03:07:46;103825.88;;;-2.44;100.00
58534;BME280;44109;52.398;7.024;2023-02-07T03:10:30;103831.94;;;-2.42;100.00
58534;BME280;44109;52.398;7.024;2023-02-07T03:13:08;103838.66;;;-2.31;100.00
58534;BME280;44109;52.398;7.024;2023-02-07T03:15:50;103828.19;;;-2.27;100.00
58534;BME280;44109;52.398;7.024;2023-02-07T03:18:38;103816.28;;;-2.40;100.00
58534;BME280;44109;52.398;7.024;2023-02-07T03:21:17;103835.72;;;-2.30;100.00
58534;BME280;44109;52.398;7.024;2023-02-07T03:23:52;103830.69;;;-2.39;100.00
58534;BME280;44109;52.398;7.024;2023-02-07T03:26:24;103826.91;;;-2.58;100.00
58534;BME280;44109;52.398;7.024;2023-02-07T03:28:55;103836.53;;;-2.62;100.00
58534;BME280;44109;52.398;7.024;2023-02-07T03:31:26;103837.31;;;-2.68;100.00
58534;BME280;44109;52.398;7.024;2023-02-07T03:34:01;103832.75;;;-2.61;100.00
58534;BME280;44109;52.398;7.024;2023-02-07T03:36:39;103835.69;;;-2.56;100.00
58534;BME280;44109;52.398;7.024;2023-02-07T03:39:12;103843.44;;;-2.53;100.00
58534;BME280;44109;52.398;7.024;2023-02-07T03:41:43;103844.47;;;-2.41;100.00
58534;BME280;44109;52.398;7.024;2023-02-07T03:44:16;103839.28;;;-2.36;100.00
58534;BME280;44109;52.398;7.024;2023-02-07T03:46:50;103841.34;;;-2.51;100.00
58534;BME280;44109;52.398;7.024;2023-02-07T03:49:18;103845.47;;;-2.68;100.00
58534;BME280;44109;52.398;7.024;2023-02-07T03:51:47;103846.09;;;-2.73;100.00
58534;BME280;44109;52.398;7.024;2023-02-07T03:54:15;103827.28;;;-2.74;100.00
58534;BME280;44109;52.398;7.024;2023-02-07T03:56:42;103833.78;;;-2.75;100.00
58534;BME280;44109;52.398;7.024;2023-02-07T03:59:10;103834.00;;;-2.77;100.00
58534;BME280;44109;52.398;7.024;2023-02-07T04:01:38;103830.66;;;-2.72;100.00
58534;BME280;44109;52.398;7.024;2023-02-07T04:04:08;103836.94;;;-2.72;100.00
58534;BME280;44109;52.398;7.024;2023-02-07T04:06:36;103832.69;;;-2.88;100.00
58534;BME280;44109;52.398;7.024;2023-02-07T04:09:06;103838.09;;;-3.01;100.00
58534;BME280;44109;52.398;7.024;2023-02-07T04:11:34;103833.03;;;-3.17;100.00
58534;BME280;44109;52.398;7.024;2023-02-07T04:14:01;103842.63;;;-3.15;100.00
58534;BME280;44109;52.398;7.024;2023-02-07T04:16:29;103835.91;;;-3.19;100.00
58534;BME280;44109;52.398;7.024;2023-02-07T04:18:57;103835.97;;;-3.12;100.00
58534;BME280;44109;52.398;7.024;2023-02-07T04:21:24;103837.69;;;-2.98;100.00
58534;BME280;44109;52.398;7.024;2023-02-07T04:23:52;103834.59;;;-2.82;100.00
58534;BME280;44109;52.398;7.024;2023-02-07T04:26:21;103839.44;;;-2.70;100.00
58534;BME280;44109;52.398;7.024;2023-02-07T04:28:49;103849.22;;;-2.83;100.00
58534;BME280;44109;52.398;7.024;2023-02-07T04:31:17;103848.16;;;-2.95;100.00
58534;BME280;44109;52.398;7.024;2023-02-07T04:33:45;103830.97;;;-3.09;100.00
58534;BME280;44109;52.398;7.024;2023-02-07T04:36:13;103835.09;;;-3.19;100.00
58534;BME280;44109;52.398;7.024;2023-02-07T04:38:41;103831.53;;;-3.26;100.00
58534;BME280;44109;52.398;7.024;2023-02-07T04:41:09;103839.19;;;-3.37;100.00
58534;BME280;44109;52.398;7.024;2023-02-07T04:43:38;103833.72;;;-3.43;100.00
58534;BME280;44109;52.398;7.024;2023-02-07T04:46:07;103828.44;;;-3.58;100.00
58534;BME280;44109;52.398;7.024;2023-02-07T04:48:35;103833.44;;;-3.55;100.00
58534;BME280;44109;52.398;7.024;2023-02-07T04:51:03;103831.16;;;-3.58;100.00
58534;BME280;44109;52.398;7.024;2023-02-07T04:53:32;103829.06;;;-3.56;100.00
58534;BME280;44109;52.398;7.024;2023-02-07T04:56:00;103809.63;;;-3.66;100.00
58534;BME280;44109;52.398;7.024;2023-02-07T04:58:28;103839.28;;;-3.58;100.00
58534;BME280;44109;52.398;7.024;2023-02-07T05:00:57;103823.19;;;-3.60;100.00
58534;BME280;44109;52.398;7.024;2023-02-07T05:03:25;103824.47;;;-3.55;100.00
58534;BME280;44109;52.398;7.024;2023-02-07T05:05:53;103817.75;;;-3.66;100.00
58534;BME280;44109;52.398;7.024;2023-02-07T05:08:21;103827.84;;;-3.53;100.00
58534;BME280;44109;52.398;7.024;2023-02-07T05:10:51;103827.06;;;-3.41;100.00
58534;BME280;44109;52.398;7.024;2023-02-07T05:13:19;103837.56;;;-3.31;100.00
58534;BME280;44109;52.398;7.024;2023-02-07T05:15:48;103829.41;;;-3.31;100.00
58534;BME280;44109;52.398;7.024;2023-02-07T05:18:17;103839.69;;;-3.20;100.00
58534;BME280;44109;52.398;7.024;2023-02-07T05:20:45;103839.31;;;-3.10;100.00
58534;BME280;44109;52.398;7.024;2023-02-07T05:23:14;103846.66;;;-3.04;100.00
58534;BME280;44109;52.398;7.024;2023-02-07T05:25:41;103845.19;;;-3.00;100.00
58534;BME280;44109;52.398;7.024;2023-02-07T05:28:09;103835.97;;;-3.06;100.00
58534;BME280;44109;52.398;7.024;2023-02-07T05:30:37;103835.38;;;-3.01;100.00
58534;BME280;44109;52.398;7.024;2023-02-07T05:33:04;103834.97;;;-2.98;100.00
58534;BME280;44109;52.398;7.024;2023-02-07T05:35:34;103830.16;;;-3.02;100.00
58534;BME280;44109;52.398;7.024;2023-02-07T05:38:05;103819.22;;;-3.22;100.00
58534;BME280;44109;52.398;7.024;2023-02-07T05:40:35;103805.34;;;-3.41;100.00
58534;BME280;44109;52.398;7.024;2023-02-07T05:43:04;103838.78;;;-3.34;100.00
58534;BME280;44109;52.398;7.024;2023-02-07T05:45:33;103839.53;;;-3.53;100.00
58534;BME280;44109;52.398;7.024;2023-02-07T05:48:01;103838.25;;;-3.57;100.00
58534;BME280;44109;52.398;7.024;2023-02-07T05:50:30;103844.53;;;-3.50;100.00
58534;BME280;44109;52.398;7.024;2023-02-07T05:53:00;103845.03;;;-3.40;100.00
58534;BME280;44109;52.398;7.024;2023-02-07T05:55:27;103847.75;;;-3.33;100.00
58534;BME280;44109;52.398;7.024;2023-02-07T05:57:55;103831.22;;;-3.45;100.00
58534;BME280;44109;52.398;7.024;2023-02-07T06:00:23;103839.56;;;-3.46;100.00
58534;BME280;44109;52.398;7.024;2023-02-07T06:02:51;103844.91;;;-3.60;100.00
58534;BME280;44109;52.398;7.024;2023-02-07T06:05:19;103843.56;;;-3.77;100.00
58534;BME280;44109;52.398;7.024;2023-02-07T06:07:49;103845.84;;;-3.80;100.00
58534;BME280;44109;52.398;7.024;2023-02-07T06:10:19;103841.03;;;-3.78;100.00
58534;BME280;44109;52.398;7.024;2023-02-07T06:12:47;103837.28;;;-3.77;100.00
58534;BME280;44109;52.398;7.024;2023-02-07T06:15:15;103838.31;;;-3.78;100.00
58534;BME280;44109;52.398;7.024;2023-02-07T06:17:42;103842.63;;;-3.63;100.00
58534;BME280;44109;52.398;7.024;2023-02-07T06:20:10;103849.97;;;-3.50;100.00
58534;BME280;44109;52.398;7.024;2023-02-07T06:22:38;103844.53;;;-3.50;100.00
58534;BME280;44109;52.398;7.024;2023-02-07T06:25:06;103848.72;;;-3.54;100.00
58534;BME280;44109;52.398;7.024;2023-02-07T06:27:38;103854.31;;;-3.55;100.00
58534;BME280;44109;52.398;7.024;2023-02-07T06:30:09;103837.78;;;-3.67;100.00
58534;BME280;44109;52.398;7.024;2023-02-07T06:32:38;103850.84;;;-3.77;100.00
58534;BME280;44109;52.398;7.024;2023-02-07T06:35:07;103862.81;;;-3.65;100.00
58534;BME280;44109;52.398;7.024;2023-02-07T06:37:35;103864.13;;;-3.54;100.00
58534;BME280;44109;52.398;7.024;2023-02-07T06:40:03;103859.22;;;-3.44;100.00
58534;BME280;44109;52.398;7.024;2023-02-07T06:42:31;103848.06;;;-3.56;100.00
58534;BME280;44109;52.398;7.024;2023-02-07T06:45:00;103874.13;;;-3.62;100.00
58534;BME280;44109;52.398;7.024;2023-02-07T06:47:28;103877.19;;;-3.71;100.00
58534;BME280;44109;52.398;7.024;2023-02-07T06:49:56;103872.75;;;-3.79;100.00
58534;BME280;44109;52.398;7.024;2023-02-07T06:52:23;103874.88;;;-3.74;100.00
58534;BME280;44109;52.398;7.024;2023-02-07T06:54:51;103869.88;;;-3.71;100.00
58534;BME280;44109;52.398;7.024;2023-02-07T06:57:18;103878.75;;;-3.84;100.00
58534;BME280;44109;52.398;7.024;2023-02-07T06:59:46;103874.38;;;-3.85;100.00
58534;BME280;44109;52.398;7.024;2023-02-07T07:02:15;103880.19;;;-3.88;100.00
58534;BME280;44109;52.398;7.024;2023-02-07T07:04:43;103882.44;;;-3.91;100.00
58534;BME280;44109;52.398;7.024;2023-02-07T07:07:10;103882.53;;;-4.06;99.85
58534;BME280;44109;52.398;7.024;2023-02-07T07:09:38;103884.22;;;-4.05;100.00
58534;BME280;44109;52.398;7.024;2023-02-07T07:12:06;103880.09;;;-4.01;100.00
58534;BME280;44109;52.398;7.024;2023-02-07T07:14:34;103872.59;;;-3.99;100.00
58534;BME280;44109;52.398;7.024;2023-02-07T07:17:02;103872.16;;;-4.02;100.00
58534;BME280;44109;52.398;7.024;2023-02-07T07:19:31;103874.66;;;-4.01;100.00
58534;BME280;44109;52.398;7.024;2023-02-07T07:21:58;103872.59;;;-3.99;100.00
58534;BME280;44109;52.398;7.024;2023-02-07T07:24:26;103870.53;;;-3.97;100.00
58534;BME280;44109;52.398;7.024;2023-02-07T07:26:54;103871.56;;;-3.98;100.00
58534;BME280;44109;52.398;7.024;2023-02-07T07:29:21;103885.13;;;-3.98;100.00
58534;BME280;44109;52.398;7.024;2023-02-07T07:31:49;103883.56;;;-3.86;100.00
58534;BME280;44109;52.398;7.024;2023-02-07T07:34:17;103877.97;;;-3.77;100.00
58534;BME280;44109;52.398;7.024;2023-02-07T07:36:46;103879.06;;;-3.72;100.00
58534;BME280;44109;52.398;7.024;2023-02-07T07:39:13;103884.91;;;-3.68;100.00
58534;BME280;44109;52.398;7.024;2023-02-07T07:41:42;103897.88;;;-3.64;100.00
58534;BME280;44109;52.398;7.024;2023-02-07T07:44:09;103893.94;;;-3.61;100.00
58534;BME280;44109;52.398;7.024;2023-02-07T07:46:37;103887.94;;;-3.57;100.00
58534;BME280;44109;52.398;7.024;2023-02-07T07:49:05;103874.34;;;-3.63;100.00
58534;BME280;44109;52.398;7.024;2023-02-07T07:51:33;103891.31;;;-3.48;100.00
58534;BME280;44109;52.398;7.024;2023-02-07T07:54:02;103893.22;;;-3.42;100.00
58534;BME280;44109;52.398;7.024;2023-02-07T07:56:30;103898.94;;;-3.30;100.00
58534;BME280;44109;52.398;7.024;2023-02-07T07:59:00;103900.84;;;-3.24;100.00
58534;BME280;44109;52.398;7.024;2023-02-07T08:01:28;103905.28;;;-3.16;100.00
58534;BME280;44109;52.398;7.024;2023-02-07T08:03:56;103906.41;;;-3.04;100.00
58534;BME280;44109;52.398;7.024;2023-02-07T08:06:24;103912.69;;;-2.97;100.00
58534;BME280;44109;52.398;7.024;2023-02-07T08:08:51;103914.56;;;-2.91;100.00
58534;BME280;44109;52.398;7.024;2023-02-07T08:11:20;103904.97;;;-2.87;100.00
58534;BME280;44109;52.398;7.024;2023-02-07T08:13:48;103901.69;;;-2.69;100.00
58534;BME280;44109;52.398;7.024;2023-02-07T08:16:16;103910.59;;;-2.40;100.00
58534;BME280;44109;52.398;7.024;2023-02-07T08:18:44;103919.81;;;-2.21;100.00
58534;BME280;44109;52.398;7.024;2023-02-07T08:21:11;103909.97;;;-2.09;100.00
58534;BME280;44109;52.398;7.024;2023-02-07T08:23:39;103909.34;;;-1.91;100.00
58534;BME280;44109;52.398;7.024;2023-02-07T08:26:07;103911.25;;;-1.79;100.00
58534;BME280;44109;52.398;7.024;2023-02-07T08:28:36;103906.84;;;-1.66;100.00
58534;BME280;44109;52.398;7.024;2023-02-07T08:31:04;103906.84;;;-1.53;100.00
58534;BME280;44109;52.398;7.024;2023-02-07T08:33:32;103910.78;;;-1.36;100.00
58534;BME280;44109;52.398;7.024;2023-02-07T08:36:00;103886.28;;;-1.36;100.00
58534;BME280;44109;52.398;7.024;2023-02-07T08:38:30;103901.06;;;-1.18;100.00
58534;BME280;44109;52.398;7.024;2023-02-07T08:40:59;103903.72;;;-0.92;100.00
58534;BME280;44109;52.398;7.024;2023-02-07T08:43:27;103897.31;;;-0.66;100.00
58534;BME280;44109;52.398;7.024;2023-02-07T08:45:56;103903.00;;;-0.36;100.00
58534;BME280;44109;52.398;7.024;2023-02-07T08:48:25;103891.63;;;-0.01;100.00
58534;BME280;44109;52.398;7.024;2023-02-07T08:50:53;103897.63;;;0.33;100.00
58534;BME280;44109;52.398;7.024;2023-02-07T08:53:21;103906.16;;;0.61;100.00
58534;BME280;44109;52.398;7.024;2023-02-07T08:55:49;103892.22;;;0.88;100.00
58534;BME280;44109;52.398;7.024;2023-02-07T08:58:17;103891.13;;;1.07;100.00
58534;BME280;44109;52.398;7.024;2023-02-07T09:00:44;103892.31;;;1.30;100.00
58534;BME280;44109;52.398;7.024;2023-02-07T09:03:13;103893.78;;;1.44;100.00
58534;BME280;44109;52.398;7.024;2023-02-07T09:05:41;103894.22;;;1.59;100.00
58534;BME280;44109;52.398;7.024;2023-02-07T09:08:09;103891.97;;;1.68;100.00
58534;BME280;44109;52.398;7.024;2023-02-07T09:10:36;103898.56;;;1.90;100.00
58534;BME280;44109;52.398;7.024;2023-02-07T09:13:04;103884.19;;;2.07;100.00
58534;BME280;44109;52.398;7.024;2023-02-07T09:15:32;103895.03;;;2.13;100.00
58534;BME280;44109;52.398;7.024;2023-02-07T09:18:00;103891.84;;;2.28;100.00
58534;BME280;44109;52.398;7.024;2023-02-07T09:20:29;103898.84;;;2.36;100.00
58534;BME280;44109;52.398;7.024;2023-02-07T09:22:56;103894.56;;;2.40;100.00
58534;BME280;44109;52.398;7.024;2023-02-07T09:25:41;103894.69;;;2.45;100.00
58534;BME280;44109;52.398;7.024;2023-02-07T09:28:09;103889.69;;;2.53;100.00
58534;BME280;44109;52.398;7.024;2023-02-07T09:30:39;103878.50;;;2.55;100.00
58534;BME280;44109;52.398;7.024;2023-02-07T09:33:07;103887.19;;;2.64;100.00
58534;BME280;44109;52.398;7.024;2023-02-07T09:35:38;103890.75;;;2.64;100.00
58534;BME280;44109;52.398;7.024;2023-02-07T09:38:08;103880.84;;;2.75;100.00
58534;BME280;44109;52.398;7.024;2023-02-07T09:40:40;103876.81;;;2.66;100.00
58534;BME280;44109;52.398;7.024;2023-02-07T09:43:16;103893.34;;;2.83;100.00
58534;BME280;44109;52.398;7.024;2023-02-07T09:45:55;103871.63;;;2.93;100.00
58534;BME280;44109;52.398;7.024;2023-02-07T09:48:29;103888.16;;;3.10;100.00
58534;BME280;44109;52.398;7.024;2023-02-07T09:51:05;103886.25;;;3.10;100.00
58534;BME280;44109;52.398;7.024;2023-02-07T09:53:41;103887.34;;;2.97;100.00
58534;BME280;44109;52.398;7.024;2023-02-07T09:56:15;103886.38;;;3.03;100.00
58534;BME280;44109;52.398;7.024;2023-02-07T09:58:51;103887.09;;;2.99;100.00
58534;BME280;44109;52.398;7.024;2023-02-07T10:01:28;103883.31;;;3.00;100.00
58534;BME280;44109;52.398;7.024;2023-02-07T10:04:12;103883.50;;;3.10;100.00
58534;BME280;44109;52.398;7.024;2023-02-07T10:06:55;103887.69;;;3.01;100.00
58534;BME280;44109;52.398;7.024;2023-02-07T10:09:26;103882.72;;;3.26;100.00
58534;BME280;44109;52.398;7.024;2023-02-07T10:12:02;103881.41;;;3.29;100.00
58534;BME280;44109;52.398;7.024;2023-02-07T10:14:49;103887.59;;;3.36;100.00
58534;BME280;44109;52.398;7.024;2023-02-07T10:17:44;103892.47;;;3.34;100.00
58534;BME280;44109;52.398;7.024;2023-02-07T10:20:35;103895.84;;;3.53;100.00
58534;BME280;44109;52.398;7.024;2023-02-07T10:23:20;103890.56;;;3.35;100.00
58534;BME280;44109;52.398;7.024;2023-02-07T10:26:03;103890.44;;;3.58;100.00
58534;BME280;44109;52.398;7.024;2023-02-07T10:32:11;103875.06;;;3.57;100.00
58534;BME280;44109;52.398;7.024;2023-02-07T10:34:49;103881.25;;;3.64;100.00
58534;BME280;44109;52.398;7.024;2023-02-07T10:37:23;103875.81;;;3.52;100.00
58534;BME280;44109;52.398;7.024;2023-02-07T10:39:59;103898.28;;;3.66;100.00
58534;BME280;44109;52.398;7.024;2023-02-07T10:42:35;103889.78;;;3.68;100.00
58534;BME280;44109;52.398;7.024;2023-02-07T10:45:04;103887.25;;;3.49;100.00
58534;BME280;44109;52.398;7.024;2023-02-07T10:47:37;103888.44;;;3.53;100.00
58534;BME280;44109;52.398;7.024;2023-02-07T10:50:09;103888.94;;;3.50;100.00
58534;BME280;44109;52.398;7.024;2023-02-07T10:52:45;103895.03;;;3.24;100.00
58534;BME280;44109;52.398;7.024;2023-02-07T10:55:19;103887.53;;;3.48;100.00
58534;BME280;44109;52.398;7.024;2023-02-07T10:58:02;103891.19;;;3.53;100.00
58534;BME280;44109;52.398;7.024;2023-02-07T11:00:31;103893.28;;;3.63;100.00
58534;BME280;44109;52.398;7.024;2023-02-07T11:03:02;103886.47;;;3.66;100.00
58534;BME280;44109;52.398;7.024;2023-02-07T11:05:38;103883.28;;;3.57;100.00
58534;BME280;44109;52.398;7.024;2023-02-07T11:08:25;103881.16;;;3.59;100.00
58534;BME280;44109;52.398;7.024;2023-02-07T11:10:56;103873.66;;;3.54;100.00
58534;BME280;44109;52.398;7.024;2023-02-07T11:13:27;103880.56;;;3.57;100.00
58534;BME280;44109;52.398;7.024;2023-02-07T11:15:59;103875.41;;;3.61;100.00
58534;BME280;44109;52.398;7.024;2023-02-07T11:18:37;103877.44;;;3.37;100.00
58534;BME280;44109;52.398;7.024;2023-02-07T11:21:21;103870.78;;;3.33;100.00
58534;BME280;44109;52.398;7.024;2023-02-07T11:23:53;103883.47;;;3.50;100.00
58534;BME280;44109;52.398;7.024;2023-02-07T11:26:25;103881.69;;;3.16;100.00
58534;BME280;44109;52.398;7.024;2023-02-07T11:29:01;103875.31;;;3.27;100.00
58534;BME280;44109;52.398;7.024;2023-02-07T11:31:35;103861.41;;;3.17;97.61
58534;BME280;44109;52.398;7.024;2023-02-07T11:34:09;103863.91;;;3.18;97.62
58534;BME280;44109;52.398;7.024;2023-02-07T11:36:54;103855.78;;;3.23;96.73
58534;BME280;44109;52.398;7.024;2023-02-07T11:39:34;103864.75;;;3.19;95.92
58534;BME280;44109;52.398;7.024;2023-02-07T11:42:10;103855.63;;;3.30;97.32
58534;BME280;44109;52.398;7.024;2023-02-07T11:44:41;103855.78;;;3.23;95.19
58534;BME280;44109;52.398;7.024;2023-02-07T11:47:13;103860.84;;;3.31;94.80
58534;BME280;44109;52.398;7.024;2023-02-07T11:49:45;103834.63;;;3.52;99.08
58534;BME280;44109;52.398;7.024;2023-02-07T11:52:16;103842.66;;;3.88;100.00
58534;BME280;44109;52.398;7.024;2023-02-07T11:54:49;103838.81;;;3.89;96.84
58534;BME280;44109;52.398;7.024;2023-02-07T11:57:21;103837.47;;;4.08;100.00
58534;BME280;44109;52.398;7.024;2023-02-07T12:00:00;103831.91;;;4.03;100.00
58534;BME280;44109;52.398;7.024;2023-02-07T12:02:33;103841.38;;;4.29;100.00
58534;BME280;44109;52.398;7.024;2023-02-07T12:05:13;103836.34;;;4.43;100.00
58534;BME280;44109;52.398;7.024;2023-02-07T12:07:48;103822.22;;;4.56;100.00
58534;BME280;44109;52.398;7.024;2023-02-07T12:10:21;103827.91;;;4.71;100.00
58534;BME280;44109;52.398;7.024;2023-02-07T12:12:56;103822.78;;;4.80;100.00
58534;BME280;44109;52.398;7.024;2023-02-07T12:15:33;103823.28;;;4.99;100.00
58534;BME280;44109;52.398;7.024;2023-02-07T12:18:10;103822.00;;;5.06;100.00
58534;BME280;44109;52.398;7.024;2023-02-07T12:20:46;103818.13;;;5.29;100.00
58534;BME280;44109;52.398;7.024;2023-02-07T12:23:22;103822.91;;;5.39;100.00
58534;BME280;44109;52.398;7.024;2023-02-07T12:26:00;103819.25;;;5.06;97.16
58534;BME280;44109;52.398;7.024;2023-02-07T12:28:38;103822.56;;;5.08;96.51
58534;BME280;44109;52.398;7.024;2023-02-07T12:31:17;103823.22;;;5.16;98.82
58534;BME280;44109;52.398;7.024;2023-02-07T12:33:51;103829.34;;;5.23;99.14
58534;BME280;44109;52.398;7.024;2023-02-07T12:36:27;103841.19;;;5.23;97.10
58534;BME280;44109;52.398;7.024;2023-02-07T12:39:02;103838.38;;;5.18;96.58
58534;BME280;44109;52.398;7.024;2023-02-07T12:41:39;103846.53;;;4.86;95.05
58534;BME280;44109;52.398;7.024;2023-02-07T12:44:14;103831.16;;;4.90;96.54
58534;BME280;44109;52.398;7.024;2023-02-07T12:46:57;103834.13;;;4.62;90.43
58534;BME280;44109;52.398;7.024;2023-02-07T12:49:51;103828.06;;;4.81;93.71
58534;BME280;44109;52.398;7.024;2023-02-07T12:52:38;103825.94;;;4.89;95.82
58534;BME280;44109;52.398;7.024;2023-02-07T12:55:23;103831.03;;;4.80;89.26
58534;BME280;44109;52.398;7.024;2023-02-07T12:58:10;103833.69;;;4.92;94.71
58534;BME280;44109;52.398;7.024;2023-02-07T13:00:53;103821.69;;;5.03;95.73
58534;BME280;44109;52.398;7.024;2023-02-07T13:03:41;103821.53;;;4.88;95.67
58534;BME280;44109;52.398;7.024;2023-02-07T13:06:35;103818.72;;;4.82;93.80
58534;BME280;44109;52.398;7.024;2023-02-07T13:09:23;103821.03;;;4.91;93.50
58534;BME280;44109;52.398;7.024;2023-02-07T13:12:03;103806.66;;;5.11;99.26
58534;BME280;44109;52.398;7.024;2023-02-07T13:14:53;103812.19;;;5.16;100.00
58534;BME280;44109;52.398;7.024;2023-02-07T13:17:46;103812.25;;;5.21;99.91
58534;BME280;44109;52.398;7.024;2023-02-07T13:20:32;103811.06;;;5.12;96.64
58534;BME280;44109;52.398;7.024;2023-02-07T13:23:13;103816.38;;;5.18;95.08
58534;BME280;44109;52.398;7.024;2023-02-07T13:25:46;103807.22;;;5.13;90.06